Time;durP1;ratioP1;P1;durP2;ratioP2;P2;SDS_P1;SDS_P2;PMS_P1;PMS_P2;Temp;Humidity;BMP_temperature;BMP_pressure;BME280_temperature;BME280_humidity;BME280_pressure;Samples;Min_cycle;Max_cycle;Signal;HPM_P1;HPM_P2
2022/12/02 00:01:49;;;;;;;43.88;17.30;;;3.30;99.90;;;;;;21319233;27;20037;-82
2022/12/02 00:11:50;;;;;;;45.28;17.30;;;3.20;99.90;;;;;;21327350;27;20066;-82
2022/12/02 00:21:51;;;;;;;46.53;18.02;;;3.20;99.90;;;;;;21267011;27;20030;-82
2022/12/02 00:31:52;;;;;;;45.90;17.13;;;3.10;99.90;;;;;;21247681;27;20039;-82
2022/12/02 00:41:52;;;;;;;46.00;17.85;;;3.10;99.90;;;;;;21251813;27;20027;-82
2022/12/02 00:51:53;;;;;;;75.68;36.05;;;3.00;99.90;;;;;;21245890;27;20083;-82
2022/12/02 01:01:54;;;;;;;71.55;26.90;;;3.10;99.90;;;;;;21245307;27;20563;-82
2022/12/02 01:11:55;;;;;;;62.40;22.60;;;3.10;99.90;;;;;;21228120;27;20394;-82
2022/12/02 01:21:56;;;;;;;47.00;18.65;;;3.10;99.90;;;;;;21272771;27;20053;-82
2022/12/02 01:31:58;;;;;;;44.20;17.63;;;3.10;99.90;;;;;;21312911;27;20023;-82
2022/12/02 01:42:00;;;;;;;47.00;17.15;;;3.10;99.90;;;;;;21318138;27;20484;-82
2022/12/02 01:52:01;;;;;;;43.33;17.70;;;3.10;99.90;;;;;;21161921;28;20042;-82
2022/12/02 02:02:01;;;;;;;56.42;21.75;;;3.10;99.90;;;;;;21156467;28;20039;-82
2022/12/02 02:12:03;;;;;;;45.75;19.92;;;3.10;99.90;;;;;;21176370;28;20034;-82
2022/12/02 02:22:10;;;;;;;46.67;17.63;;;3.10;99.90;;;;;;21180382;27;20035;-82
2022/12/02 02:32:11;;;;;;;38.50;16.38;;;3.10;99.90;;;;;;21255589;27;20485;-82
2022/12/02 02:42:12;;;;;;;52.40;18.05;;;3.10;99.90;;;;;;21237753;27;20083;-82
2022/12/02 02:52:14;;;;;;;40.45;16.17;;;3.10;99.90;;;;;;21236259;27;20390;-82
2022/12/02 03:02:15;;;;;;;44.10;17.67;;;3.00;99.90;;;;;;21267579;27;20512;-81
2022/12/02 03:12:17;;;;;;;49.40;19.20;;;2.90;99.90;;;;;;21337590;27;20030;-81
2022/12/02 03:22:18;;;;;;;53.63;19.75;;;2.90;99.90;;;;;;21300680;27;20133;-81
2022/12/02 03:32:18;;;;;;;50.30;19.15;;;2.80;99.90;;;;;;21318473;27;20027;-81
2022/12/02 03:42:20;;;;;;;39.58;16.30;;;2.90;99.90;;;;;;21344076;27;20027;-82
2022/12/02 03:52:21;;;;;;;41.95;16.85;;;3.00;99.90;;;;;;21348358;27;20030;-82
2022/12/02 04:02:21;;;;;;;43.63;16.38;;;3.00;99.90;;;;;;21363326;27;20030;-82
2022/12/02 04:12:22;;;;;;;37.47;15.45;;;3.10;99.90;;;;;;21348413;27;20031;-81
2022/12/02 04:22:23;;;;;;;44.22;17.33;;;3.00;99.90;;;;;;21347449;27;20079;-82
2022/12/02 04:32:23;;;;;;;54.40;17.95;;;3.00;99.90;;;;;;21342100;27;20117;-81
2022/12/02 04:42:25;;;;;;;52.80;19.52;;;3.00;99.90;;;;;;21331345;27;20038;-82
2022/12/02 04:52:28;;;;;;;52.85;19.42;;;2.90;99.90;;;;;;21317876;27;20050;-82
2022/12/02 05:02:29;;;;;;;47.80;18.10;;;2.80;99.90;;;;;;21321969;27;20504;-82
2022/12/02 05:12:30;;;;;;;50.08;18.65;;;2.90;99.90;;;;;;21357389;27;20432;-82
2022/12/02 05:22:30;;;;;;;52.13;18.50;;;2.90;99.90;;;;;;21342295;27;20042;-81
2022/12/02 05:32:31;;;;;;;56.92;18.98;;;2.90;99.90;;;;;;21387771;27;20072;-81
2022/12/02 05:42:33;;;;;;;57.63;20.33;;;2.90;99.90;;;;;;21372658;27;20034;-80
2022/12/02 05:52:34;;;;;;;57.95;20.02;;;2.80;99.90;;;;;;21376956;27;20030;-81
2022/12/02 06:02:39;;;;;;;50.95;19.15;;;2.80;99.90;;;;;;21374842;27;20046;-81
2022/12/02 06:12:40;;;;;;;50.08;18.65;;;2.80;99.90;;;;;;21365397;27;20034;-78
2022/12/02 06:22:41;;;;;;;50.20;20.23;;;3.10;99.90;;;;;;21353791;27;20030;-81
2022/12/02 06:32:47;;;;;;;51.78;18.55;;;2.90;99.90;;;;;;21356146;27;20117;-81
2022/12/02 06:42:48;;;;;;;47.60;17.02;;;3.10;99.90;;;;;;21370908;27;20038;-81
2022/12/02 06:52:49;;;;;;;53.50;18.13;;;3.00;99.90;;;;;;21355556;27;20030;-81
2022/12/02 07:02:50;;;;;;;58.22;20.00;;;2.90;99.90;;;;;;21382826;27;20037;-82
2022/12/02 07:12:51;;;;;;;55.08;18.17;;;2.90;99.90;;;;;;21358271;27;20075;-82
2022/12/02 07:23:13;;;;;;;51.53;19.25;;;3.00;99.90;;;;;;21334201;27;20031;-83
2022/12/02 07:33:13;;;;;;;;;;;3.00;99.90;;;;;;21348015;27;20026;-83
2022/12/02 07:43:14;;;;;;;54.80;20.13;;;3.10;99.90;;;;;;21344097;27;19911;-83
2022/12/02 07:53:16;;;;;;;91.18;31.92;;;3.00;99.90;;;;;;21318261;27;20287;-83
2022/12/02 08:03:17;;;;;;;55.47;20.52;;;3.00;99.90;;;;;;21338073;27;20019;-83
2022/12/02 08:13:18;;;;;;;54.03;20.48;;;3.10;99.90;;;;;;21351720;27;20023;-83
2022/12/02 08:23:19;;;;;;;46.22;17.40;;;3.10;99.90;;;;;;21317284;27;20439;-82
2022/12/02 08:33:19;;;;;;;47.90;16.63;;;3.10;99.90;;;;;;21371573;27;20508;-81
2022/12/02 08:43:20;;;;;;;54.25;19.33;;;3.20;99.90;;;;;;21358280;27;20078;-82
2022/12/02 08:53:21;;;;;;;43.60;16.77;;;3.20;99.90;;;;;;21367973;27;20027;-82
2022/12/02 09:03:22;;;;;;;40.72;16.73;;;3.20;99.90;;;;;;21389942;27;20019;-81
2022/12/02 09:13:23;;;;;;;51.42;18.33;;;3.40;99.90;;;;;;21352790;27;20027;-80
2022/12/02 09:23:23;;;;;;;46.92;17.55;;;3.40;99.90;;;;;;21330878;27;20063;-79
2022/12/02 09:33:24;;;;;;;54.10;19.33;;;3.60;99.90;;;;;;21328086;27;20034;-78
2022/12/02 09:43:27;;;;;;;57.28;20.20;;;3.60;99.90;;;;;;21330535;27;20065;-79
2022/12/02 09:53:35;;;;;;;55.33;18.80;;;3.50;99.90;;;;;;21346372;27;20019;-79
2022/12/02 10:03:36;;;;;;;62.30;19.00;;;3.60;99.90;;;;;;21311293;27;20033;-79
2022/12/02 10:13:40;;;;;;;49.38;18.77;;;3.60;99.90;;;;;;21327515;27;20023;-79
2022/12/02 10:24:08;;;;;;;52.30;18.90;;;3.80;99.90;;;;;;21327097;27;20031;-78
2022/12/02 10:34:19;;;;;;;50.15;18.35;;;3.80;99.90;;;;;;21342395;27;20175;-79
2022/12/02 10:44:21;;;;;;;51.07;18.23;;;3.90;99.90;;;;;;21343958;27;20018;-79
2022/12/02 10:54:28;;;;;;;50.75;19.15;;;4.00;99.90;;;;;;21341734;27;20312;-79
2022/12/02 11:04:28;;;;;;;53.88;20.48;;;4.10;99.90;;;;;;21305699;27;20370;-79
2022/12/02 11:14:38;;;;;;;43.60;17.42;;;4.20;99.90;;;;;;21320611;27;20031;-79
2022/12/02 11:24:39;;;;;;;36.00;14.52;;;4.40;99.90;;;;;;21339876;27;20031;-79
2022/12/02 11:34:46;;;;;;;35.80;14.27;;;4.50;99.90;;;;;;21340413;27;20455;-78
2022/12/02 11:44:47;;;;;;;35.42;14.85;;;4.50;99.90;;;;;;21318002;27;20027;-79
2022/12/02 11:55:07;;;;;;;;;;;4.80;99.90;;;;;;21318276;27;20114;-79
2022/12/02 12:05:08;;;;;;;35.92;14.77;;;4.70;99.90;;;;;;21326890;27;20441;-78
2022/12/02 12:15:09;;;;;;;39.92;15.18;;;4.70;99.90;;;;;;21351509;27;20061;-78
2022/12/02 12:25:29;;;;;;;;;;;4.70;99.90;;;;;;21350960;27;20034;-78
2022/12/02 12:35:30;;;;;;;35.50;12.20;;;4.70;99.90;;;;;;21351581;27;19918;-78
2022/12/02 12:45:30;;;;;;;;;;;4.70;99.90;;;;;;21350796;27;20030;-79
2022/12/02 12:55:31;;;;;;;28.77;11.27;;;4.60;99.90;;;;;;21351612;27;20386;-79
2022/12/02 13:05:31;;;;;;;;;;;4.70;99.90;;;;;;21349059;27;20070;-80
2022/12/02 13:15:33;;;;;;;77.37;24.07;;;4.80;99.90;;;;;;21329946;27;19910;-80
2022/12/02 13:25:34;;;;;;;31.05;12.15;;;5.00;99.90;;;;;;21259883;27;20057;-80
2022/12/02 13:35:34;;;;;;;;;;;4.90;99.90;;;;;;21261526;27;20051;-79
2022/12/02 13:45:35;;;;;;;29.20;12.27;;;5.00;99.90;;;;;;21259395;27;19908;-79
2022/12/02 13:55:36;;;;;;;;;;;5.00;99.90;;;;;;21258791;27;20035;-79
2022/12/02 14:05:37;;;;;;;28.70;11.67;;;5.20;99.90;;;;;;21108618;22;19928;-79
2022/12/02 14:15:37;;;;;;;;;;;5.20;99.90;;;;;;20947161;28;20021;-78
2022/12/02 14:25:38;;;;;;;27.55;11.48;;;5.10;99.90;;;;;;20933840;28;19908;-78
2022/12/02 14:35:39;;;;;;;;;;;5.20;99.90;;;;;;20948252;28;20083;-77
2022/12/02 14:45:40;;;;;;;23.80;9.82;;;5.20;99.90;;;;;;20927074;28;19916;-78
2022/12/02 14:55:40;;;;;;;;;;;5.20;99.90;;;;;;20944139;28;20033;-77
2022/12/02 15:05:41;;;;;;;24.27;9.17;;;5.00;99.90;;;;;;20948098;28;19912;-78
2022/12/02 15:15:42;;;;;;;;;;;4.90;99.90;;;;;;20945499;28;20298;-78
2022/12/02 15:25:43;;;;;;;28.35;11.00;;;4.60;99.90;;;;;;20927019;28;19908;-78
2022/12/02 15:35:44;;;;;;;;;;;4.40;99.90;;;;;;20919185;28;20502;-79
2022/12/02 15:45:45;;;;;;;21.43;10.53;;;4.10;99.90;;;;;;20956563;28;19913;-78
2022/12/02 15:55:46;;;;;;;89.32;29.10;;;3.80;99.90;;;;;;20957477;28;20051;-79
2022/12/02 16:05:46;;;;;;;36.35;16.52;;;3.40;99.90;;;;;;20930817;28;20036;-78
2022/12/02 16:15:47;;;;;;;31.33;13.60;;;3.10;99.90;;;;;;20934667;28;20041;-78
2022/12/02 16:25:48;;;;;;;26.58;11.48;;;3.00;99.90;;;;;;20925156;28;20029;-78
2022/12/02 16:35:49;;;;;;;27.38;11.32;;;3.10;99.90;;;;;;20922030;28;20072;-78
2022/12/02 16:45:49;;;;;;;25.70;11.85;;;3.20;99.90;;;;;;20915971;28;20037;-78
2022/12/02 16:55:50;;;;;;;32.55;10.48;;;3.00;99.90;;;;;;20926523;28;20032;-77
2022/12/02 17:05:51;;;;;;;26.23;11.18;;;2.90;99.90;;;;;;20908400;28;20095;-77
2022/12/02 17:15:52;;;;;;;23.02;10.30;;;2.90;99.90;;;;;;20899541;28;20025;-77
2022/12/02 17:25:52;;;;;;;20.13;9.50;;;2.90;99.90;;;;;;20918215;28;20069;-78
2022/12/02 17:35:53;;;;;;;24.45;9.90;;;2.80;99.90;;;;;;20921114;28;20021;-78
2022/12/02 17:45:54;;;;;;;27.60;11.57;;;2.50;99.90;;;;;;20920112;28;20052;-76
2022/12/02 17:55:55;;;;;;;28.35;11.60;;;2.30;99.90;;;;;;20902213;28;20032;-77
2022/12/02 18:05:56;;;;;;;24.15;10.48;;;2.10;99.90;;;;;;20920477;28;20025;-77
2022/12/02 18:15:56;;;;;;;28.17;11.55;;;2.00;99.90;;;;;;20918364;28;20414;-78
2022/12/02 18:25:57;;;;;;;27.65;10.32;;;2.00;99.90;;;;;;20905032;28;20491;-78
2022/12/02 18:35:58;;;;;;;20.98;9.32;;;1.90;99.90;;;;;;20901766;28;20032;-78
2022/12/02 18:45:59;;;;;;;23.67;10.07;;;2.00;99.90;;;;;;20922716;28;20036;-78
2022/12/02 18:56:00;;;;;;;24.98;11.68;;;2.00;99.90;;;;;;20918377;28;20117;-78
2022/12/02 19:06:01;;;;;;;25.17;11.43;;;1.90;99.90;;;;;;20914513;28;20369;-78
2022/12/02 19:16:02;;;;;;;24.60;9.63;;;2.00;99.90;;;;;;20916561;28;20086;-78
2022/12/02 19:26:03;;;;;;;28.55;10.18;;;2.00;99.90;;;;;;20915956;28;20146;-78
2022/12/02 19:36:04;;;;;;;24.85;10.50;;;2.00;99.90;;;;;;20896170;28;20060;-78
2022/12/02 19:46:05;;;;;;;24.65;12.15;;;2.00;99.90;;;;;;20917371;28;20620;-77
2022/12/02 19:56:05;;;;;;;23.83;10.88;;;2.00;99.90;;;;;;20889125;28;20025;-78
2022/12/02 20:06:07;;;;;;;20.85;9.90;;;2.00;99.90;;;;;;20962072;22;20532;-79
2022/12/02 20:16:08;;;;;;;18.88;9.20;;;1.90;99.90;;;;;;20981112;28;20036;-78
2022/12/02 20:26:08;;;;;;;19.90;8.65;;;1.80;99.90;;;;;;20968981;28;20033;-79
2022/12/02 20:36:09;;;;;;;18.35;8.68;;;1.60;99.90;;;;;;21012550;28;20040;-77
2022/12/02 20:46:10;;;;;;;20.27;9.38;;;1.80;99.90;;;;;;21009868;28;20043;-79
2022/12/02 20:56:11;;;;;;;21.38;9.18;;;1.60;99.90;;;;;;21013980;28;20131;-79
2022/12/02 21:06:12;;;;;;;17.80;8.93;;;1.60;99.90;;;;;;20991402;28;20045;-79
2022/12/02 21:16:13;;;;;;;22.20;8.77;;;1.70;99.90;;;;;;21006708;28;20093;-79
2022/12/02 21:26:14;;;;;;;17.48;9.10;;;1.70;99.90;;;;;;20988294;28;20029;-77
2022/12/02 21:36:14;;;;;;;21.88;9.90;;;1.80;99.90;;;;;;21003211;28;20116;-77
2022/12/02 21:46:15;;;;;;;23.30;10.15;;;1.70;99.90;;;;;;20969384;28;20039;-79
2022/12/02 21:56:16;;;;;;;17.55;9.05;;;1.80;99.90;;;;;;20946845;28;20040;-78
2022/12/02 22:06:17;;;;;;;21.42;9.05;;;1.40;99.90;;;;;;20963437;28;20302;-79
2022/12/02 22:16:18;;;;;;;25.90;10.93;;;1.40;99.90;;;;;;20989189;28;20036;-79
2022/12/02 22:26:19;;;;;;;29.30;12.63;;;1.40;99.90;;;;;;21005187;28;20036;-79
2022/12/02 22:36:19;;;;;;;27.40;12.70;;;1.50;99.90;;;;;;21003817;28;20031;-79
2022/12/02 22:46:20;;;;;;;26.83;12.13;;;1.40;99.90;;;;;;20985380;28;20482;-79
2022/12/02 22:56:21;;;;;;;22.00;10.40;;;1.20;99.90;;;;;;20985324;28;20600;-79
2022/12/02 23:06:22;;;;;;;23.85;9.75;;;1.20;99.90;;;;;;20966669;28;20043;-79
2022/12/02 23:16:24;;;;;;;17.83;7.95;;;1.40;99.90;;;;;;20988813;28;20033;-79
2022/12/02 23:26:25;;;;;;;22.35;9.77;;;1.30;99.90;;;;;;21001494;28;20035;-79
2022/12/02 23:36:26;;;;;;;23.05;9.68;;;1.20;99.90;;;;;;20965541;28;20391;-79
2022/12/02 23:46:27;;;;;;;20.88;9.77;;;1.10;99.90;;;;;;20984581;28;20271;-78
2022/12/02 23:56:27;;;;;;;28.08;12.25;;;0.90;99.90;;;;;;20965651;28;20036;-79
